sensor_id;sensor_type;location;lat;lon;timestamp;P1;durP1;ratioP1;P2;durP2;ratioP2
17173;SDS011;8702;48.130;-1.696;2023-04-05T00:02:23;14.60;;;10.30;;
17173;SDS011;8702;48.130;-1.696;2023-04-05T00:04:54;12.70;;;10.20;;
17173;SDS011;8702;48.130;-1.696;2023-04-05T00:07:22;13.00;;;10.97;;
17173;SDS011;8702;48.130;-1.696;2023-04-05T00:09:53;16.67;;;11.40;;
17173;SDS011;8702;48.130;-1.696;2023-04-05T00:12:21;14.90;;;11.33;;
17173;SDS011;8702;48.130;-1.696;2023-04-05T00:14:48;12.70;;;10.40;;
17173;SDS011;8702;48.130;-1.696;2023-04-05T00:17:15;16.93;;;10.73;;
17173;SDS011;8702;48.130;-1.696;2023-04-05T00:19:43;15.97;;;11.23;;
17173;SDS011;8702;48.130;-1.696;2023-04-05T00:22:10;11.53;;;10.33;;
17173;SDS011;8702;48.130;-1.696;2023-04-05T00:24:37;13.93;;;10.47;;
17173;SDS011;8702;48.130;-1.696;2023-04-05T00:27:09;14.70;;;11.07;;
17173;SDS011;8702;48.130;-1.696;2023-04-05T00:29:36;15.40;;;11.27;;
17173;SDS011;8702;48.130;-1.696;2023-04-05T00:32:03;14.00;;;10.40;;
17173;SDS011;8702;48.130;-1.696;2023-04-05T00:34:30;14.53;;;11.17;;
17173;SDS011;8702;48.130;-1.696;2023-04-05T00:36:58;16.13;;;10.37;;
17173;SDS011;8702;48.130;-1.696;2023-04-05T00:39:25;15.70;;;11.00;;
17173;SDS011;8702;48.130;-1.696;2023-04-05T00:41:52;14.77;;;11.20;;
17173;SDS011;8702;48.130;-1.696;2023-04-05T00:44:21;11.80;;;10.53;;
17173;SDS011;8702;48.130;-1.696;2023-04-05T00:46:48;12.37;;;10.47;;
17173;SDS011;8702;48.130;-1.696;2023-04-05T00:49:16;12.37;;;10.00;;
17173;SDS011;8702;48.130;-1.696;2023-04-05T00:51:43;13.03;;;10.33;;
17173;SDS011;8702;48.130;-1.696;2023-04-05T00:54:11;15.40;;;10.63;;
17173;SDS011;8702;48.130;-1.696;2023-04-05T00:56:40;15.07;;;10.80;;
17173;SDS011;8702;48.130;-1.696;2023-04-05T00:59:07;16.27;;;11.10;;
17173;SDS011;8702;48.130;-1.696;2023-04-05T01:01:35;14.27;;;10.47;;
17173;SDS011;8702;48.130;-1.696;2023-04-05T01:04:05;12.43;;;11.13;;
17173;SDS011;8702;48.130;-1.696;2023-04-05T01:06:37;12.17;;;10.87;;
17173;SDS011;8702;48.130;-1.696;2023-04-05T01:09:15;13.40;;;10.40;;
17173;SDS011;8702;48.130;-1.696;2023-04-05T01:11:49;16.60;;;11.17;;
17173;SDS011;8702;48.130;-1.696;2023-04-05T01:14:20;11.87;;;10.53;;
17173;SDS011;8702;48.130;-1.696;2023-04-05T01:16:51;14.07;;;10.87;;
17173;SDS011;8702;48.130;-1.696;2023-04-05T01:19:22;13.57;;;10.43;;
17173;SDS011;8702;48.130;-1.696;2023-04-05T01:25:08;16.37;;;11.80;;
17173;SDS011;8702;48.130;-1.696;2023-04-05T01:27:56;14.87;;;11.03;;
17173;SDS011;8702;48.130;-1.696;2023-04-05T01:30:40;15.40;;;10.50;;
17173;SDS011;8702;48.130;-1.696;2023-04-05T01:33:11;15.70;;;11.70;;
17173;SDS011;8702;48.130;-1.696;2023-04-05T01:35:45;15.67;;;11.30;;
17173;SDS011;8702;48.130;-1.696;2023-04-05T01:38:16;15.33;;;11.40;;
17173;SDS011;8702;48.130;-1.696;2023-04-05T01:40:49;16.63;;;11.10;;
17173;SDS011;8702;48.130;-1.696;2023-04-05T01:43:16;13.70;;;11.33;;
17173;SDS011;8702;48.130;-1.696;2023-04-05T01:45:45;15.30;;;10.67;;
17173;SDS011;8702;48.130;-1.696;2023-04-05T01:48:12;14.50;;;10.93;;
17173;SDS011;8702;48.130;-1.696;2023-04-05T01:50:40;11.40;;;10.13;;
17173;SDS011;8702;48.130;-1.696;2023-04-05T01:53:07;16.10;;;11.70;;
17173;SDS011;8702;48.130;-1.696;2023-04-05T01:55:34;17.83;;;12.37;;
17173;SDS011;8702;48.130;-1.696;2023-04-05T01:58:01;13.33;;;10.97;;
17173;SDS011;8702;48.130;-1.696;2023-04-05T02:00:28;13.93;;;10.60;;
17173;SDS011;8702;48.130;-1.696;2023-04-05T02:02:56;13.80;;;10.77;;
17173;SDS011;8702;48.130;-1.696;2023-04-05T02:05:23;15.03;;;10.70;;
17173;SDS011;8702;48.130;-1.696;2023-04-05T02:07:50;14.07;;;11.13;;
17173;SDS011;8702;48.130;-1.696;2023-04-05T02:10:17;16.10;;;11.57;;
17173;SDS011;8702;48.130;-1.696;2023-04-05T02:12:45;14.23;;;11.67;;
17173;SDS011;8702;48.130;-1.696;2023-04-05T02:15:12;14.00;;;11.00;;
17173;SDS011;8702;48.130;-1.696;2023-04-05T02:17:39;15.77;;;11.13;;
17173;SDS011;8702;48.130;-1.696;2023-04-05T02:20:11;13.47;;;10.60;;
17173;SDS011;8702;48.130;-1.696;2023-04-05T02:22:39;14.83;;;11.00;;
17173;SDS011;8702;48.130;-1.696;2023-04-05T02:25:09;12.10;;;10.50;;
17173;SDS011;8702;48.130;-1.696;2023-04-05T02:27:36;12.20;;;10.90;;
17173;SDS011;8702;48.130;-1.696;2023-04-05T02:30:04;12.07;;;10.87;;
17173;SDS011;8702;48.130;-1.696;2023-04-05T02:32:32;13.67;;;11.10;;
17173;SDS011;8702;48.130;-1.696;2023-04-05T02:34:59;14.77;;;10.63;;
17173;SDS011;8702;48.130;-1.696;2023-04-05T02:37:28;13.07;;;10.33;;
17173;SDS011;8702;48.130;-1.696;2023-04-05T02:39:55;12.97;;;10.93;;
17173;SDS011;8702;48.130;-1.696;2023-04-05T02:42:21;13.13;;;10.83;;
17173;SDS011;8702;48.130;-1.696;2023-04-05T02:44:48;13.27;;;11.10;;
17173;SDS011;8702;48.130;-1.696;2023-04-05T02:47:16;13.93;;;11.60;;
17173;SDS011;8702;48.130;-1.696;2023-04-05T02:49:45;13.73;;;10.80;;
17173;SDS011;8702;48.130;-1.696;2023-04-05T02:52:13;13.83;;;11.10;;
17173;SDS011;8702;48.130;-1.696;2023-04-05T02:54:41;14.63;;;11.43;;
17173;SDS011;8702;48.130;-1.696;2023-04-05T02:57:08;16.23;;;11.57;;
17173;SDS011;8702;48.130;-1.696;2023-04-05T02:59:35;15.33;;;11.93;;
17173;SDS011;8702;48.130;-1.696;2023-04-05T03:02:03;15.23;;;12.17;;
17173;SDS011;8702;48.130;-1.696;2023-04-05T03:04:30;13.37;;;11.97;;
17173;SDS011;8702;48.130;-1.696;2023-04-05T03:06:58;15.50;;;12.03;;
17173;SDS011;8702;48.130;-1.696;2023-04-05T03:09:27;13.33;;;11.47;;
17173;SDS011;8702;48.130;-1.696;2023-04-05T03:11:58;18.40;;;11.57;;
17173;SDS011;8702;48.130;-1.696;2023-04-05T03:14:27;13.43;;;12.10;;
17173;SDS011;8702;48.130;-1.696;2023-04-05T03:16:54;15.33;;;11.63;;
17173;SDS011;8702;48.130;-1.696;2023-04-05T03:19:21;12.93;;;11.50;;
17173;SDS011;8702;48.130;-1.696;2023-04-05T03:21:50;13.27;;;11.37;;
17173;SDS011;8702;48.130;-1.696;2023-04-05T03:24:17;12.83;;;11.40;;
17173;SDS011;8702;48.130;-1.696;2023-04-05T03:26:44;19.37;;;11.83;;
17173;SDS011;8702;48.130;-1.696;2023-04-05T03:29:14;15.37;;;12.23;;
17173;SDS011;8702;48.130;-1.696;2023-04-05T03:31:41;13.50;;;12.03;;
17173;SDS011;8702;48.130;-1.696;2023-04-05T03:34:08;16.80;;;12.90;;
17173;SDS011;8702;48.130;-1.696;2023-04-05T03:36:35;15.20;;;11.87;;
17173;SDS011;8702;48.130;-1.696;2023-04-05T03:39:06;14.07;;;12.57;;
17173;SDS011;8702;48.130;-1.696;2023-04-05T03:41:34;15.03;;;12.00;;
17173;SDS011;8702;48.130;-1.696;2023-04-05T03:44:01;12.10;;;10.80;;
17173;SDS011;8702;48.130;-1.696;2023-04-05T03:46:29;17.23;;;11.33;;
17173;SDS011;8702;48.130;-1.696;2023-04-05T03:48:57;15.80;;;12.43;;
17173;SDS011;8702;48.130;-1.696;2023-04-05T03:51:25;14.13;;;11.50;;
17173;SDS011;8702;48.130;-1.696;2023-04-05T03:53:52;14.37;;;11.47;;
17173;SDS011;8702;48.130;-1.696;2023-04-05T03:56:19;14.83;;;11.73;;
17173;SDS011;8702;48.130;-1.696;2023-04-05T03:58:46;13.93;;;12.30;;
17173;SDS011;8702;48.130;-1.696;2023-04-05T04:01:14;14.57;;;12.00;;
17173;SDS011;8702;48.130;-1.696;2023-04-05T04:03:42;12.67;;;11.47;;
17173;SDS011;8702;48.130;-1.696;2023-04-05T04:06:09;14.10;;;11.93;;
17173;SDS011;8702;48.130;-1.696;2023-04-05T04:08:36;12.43;;;11.13;;
17173;SDS011;8702;48.130;-1.696;2023-04-05T04:11:03;14.13;;;11.90;;
17173;SDS011;8702;48.130;-1.696;2023-04-05T04:13:30;12.60;;;11.40;;
17173;SDS011;8702;48.130;-1.696;2023-04-05T04:15:57;14.40;;;10.83;;
17173;SDS011;8702;48.130;-1.696;2023-04-05T04:18:24;13.33;;;11.67;;
17173;SDS011;8702;48.130;-1.696;2023-04-05T04:20:52;14.07;;;11.43;;
17173;SDS011;8702;48.130;-1.696;2023-04-05T04:23:20;15.10;;;11.83;;
17173;SDS011;8702;48.130;-1.696;2023-04-05T04:25:48;14.53;;;11.67;;
17173;SDS011;8702;48.130;-1.696;2023-04-05T04:28:18;14.33;;;10.97;;
17173;SDS011;8702;48.130;-1.696;2023-04-05T04:30:45;14.50;;;11.10;;
17173;SDS011;8702;48.130;-1.696;2023-04-05T04:33:12;12.33;;;10.73;;
17173;SDS011;8702;48.130;-1.696;2023-04-05T04:35:41;13.63;;;11.50;;
17173;SDS011;8702;48.130;-1.696;2023-04-05T04:38:12;13.70;;;10.27;;
17173;SDS011;8702;48.130;-1.696;2023-04-05T04:40:43;15.13;;;10.93;;
17173;SDS011;8702;48.130;-1.696;2023-04-05T04:43:12;14.90;;;10.80;;
17173;SDS011;8702;48.130;-1.696;2023-04-05T04:45:41;12.00;;;10.00;;
17173;SDS011;8702;48.130;-1.696;2023-04-05T04:48:11;11.67;;;10.47;;
17173;SDS011;8702;48.130;-1.696;2023-04-05T04:50:40;14.37;;;9.93;;
17173;SDS011;8702;48.130;-1.696;2023-04-05T04:53:08;11.70;;;9.73;;
17173;SDS011;8702;48.130;-1.696;2023-04-05T04:55:37;12.13;;;10.07;;
17173;SDS011;8702;48.130;-1.696;2023-04-05T04:58:06;11.60;;;10.30;;
17173;SDS011;8702;48.130;-1.696;2023-04-05T05:00:37;11.77;;;10.50;;
17173;SDS011;8702;48.130;-1.696;2023-04-05T05:03:04;13.97;;;10.10;;
17173;SDS011;8702;48.130;-1.696;2023-04-05T05:05:32;13.17;;;10.13;;
17173;SDS011;8702;48.130;-1.696;2023-04-05T05:07:59;11.87;;;10.67;;
17173;SDS011;8702;48.130;-1.696;2023-04-05T05:10:26;10.70;;;9.60;;
17173;SDS011;8702;48.130;-1.696;2023-04-05T05:12:54;12.53;;;10.47;;
17173;SDS011;8702;48.130;-1.696;2023-04-05T05:15:21;11.37;;;9.90;;
17173;SDS011;8702;48.130;-1.696;2023-04-05T05:17:48;14.23;;;9.77;;
17173;SDS011;8702;48.130;-1.696;2023-04-05T05:20:17;13.63;;;10.30;;
17173;SDS011;8702;48.130;-1.696;2023-04-05T05:22:44;14.83;;;9.87;;
17173;SDS011;8702;48.130;-1.696;2023-04-05T05:25:11;13.50;;;10.57;;
17173;SDS011;8702;48.130;-1.696;2023-04-05T05:27:38;12.87;;;10.47;;
17173;SDS011;8702;48.130;-1.696;2023-04-05T05:30:08;11.67;;;10.47;;
17173;SDS011;8702;48.130;-1.696;2023-04-05T05:32:35;12.60;;;10.07;;
17173;SDS011;8702;48.130;-1.696;2023-04-05T05:35:02;12.13;;;10.43;;
17173;SDS011;8702;48.130;-1.696;2023-04-05T05:37:32;12.80;;;10.30;;
17173;SDS011;8702;48.130;-1.696;2023-04-05T05:39:59;12.63;;;11.33;;
17173;SDS011;8702;48.130;-1.696;2023-04-05T05:42:26;13.00;;;10.83;;
17173;SDS011;8702;48.130;-1.696;2023-04-05T05:44:53;13.10;;;10.37;;
17173;SDS011;8702;48.130;-1.696;2023-04-05T05:47:22;12.97;;;10.97;;
17173;SDS011;8702;48.130;-1.696;2023-04-05T05:49:49;12.03;;;10.70;;
17173;SDS011;8702;48.130;-1.696;2023-04-05T05:52:16;13.50;;;10.53;;
17173;SDS011;8702;48.130;-1.696;2023-04-05T05:54:43;15.93;;;11.07;;
17173;SDS011;8702;48.130;-1.696;2023-04-05T05:57:11;16.40;;;10.90;;
17173;SDS011;8702;48.130;-1.696;2023-04-05T05:59:38;11.23;;;10.03;;
17173;SDS011;8702;48.130;-1.696;2023-04-05T06:02:05;13.90;;;11.83;;
17173;SDS011;8702;48.130;-1.696;2023-04-05T06:04:34;15.70;;;10.83;;
17173;SDS011;8702;48.130;-1.696;2023-04-05T06:07:01;15.77;;;10.47;;
17173;SDS011;8702;48.130;-1.696;2023-04-05T06:09:29;14.50;;;10.17;;
17173;SDS011;8702;48.130;-1.696;2023-04-05T06:11:58;17.20;;;10.50;;
17173;SDS011;8702;48.130;-1.696;2023-04-05T06:14:25;13.13;;;10.13;;
17173;SDS011;8702;48.130;-1.696;2023-04-05T06:16:53;16.93;;;11.20;;
17173;SDS011;8702;48.130;-1.696;2023-04-05T06:19:20;11.77;;;9.33;;
17173;SDS011;8702;48.130;-1.696;2023-04-05T06:21:49;12.13;;;10.90;;
17173;SDS011;8702;48.130;-1.696;2023-04-05T06:24:16;14.70;;;11.10;;
17173;SDS011;8702;48.130;-1.696;2023-04-05T06:26:43;20.00;;;10.90;;
17173;SDS011;8702;48.130;-1.696;2023-04-05T06:29:10;15.60;;;11.57;;
17173;SDS011;8702;48.130;-1.696;2023-04-05T06:31:37;15.57;;;11.43;;
17173;SDS011;8702;48.130;-1.696;2023-04-05T06:34:05;13.27;;;11.23;;
17173;SDS011;8702;48.130;-1.696;2023-04-05T06:36:32;15.07;;;11.00;;
17173;SDS011;8702;48.130;-1.696;2023-04-05T06:39:00;19.90;;;11.60;;
17173;SDS011;8702;48.130;-1.696;2023-04-05T06:41:27;13.27;;;11.47;;
17173;SDS011;8702;48.130;-1.696;2023-04-05T06:43:54;15.87;;;12.10;;
17173;SDS011;8702;48.130;-1.696;2023-04-05T06:46:21;14.73;;;12.37;;
17173;SDS011;8702;48.130;-1.696;2023-04-05T06:48:48;14.83;;;11.60;;
17173;SDS011;8702;48.130;-1.696;2023-04-05T06:51:18;21.50;;;13.00;;
17173;SDS011;8702;48.130;-1.696;2023-04-05T06:53:45;18.87;;;12.27;;
17173;SDS011;8702;48.130;-1.696;2023-04-05T06:56:13;17.20;;;11.97;;
17173;SDS011;8702;48.130;-1.696;2023-04-05T06:58:40;13.97;;;11.67;;
17173;SDS011;8702;48.130;-1.696;2023-04-05T07:01:08;20.00;;;13.03;;
17173;SDS011;8702;48.130;-1.696;2023-04-05T07:03:35;16.60;;;12.40;;
17173;SDS011;8702;48.130;-1.696;2023-04-05T07:06:02;19.03;;;12.70;;
17173;SDS011;8702;48.130;-1.696;2023-04-05T07:08:30;20.37;;;12.37;;
17173;SDS011;8702;48.130;-1.696;2023-04-05T07:10:58;16.17;;;12.77;;
17173;SDS011;8702;48.130;-1.696;2023-04-05T07:13:26;22.27;;;14.13;;
17173;SDS011;8702;48.130;-1.696;2023-04-05T07:15:58;30.80;;;15.50;;
17173;SDS011;8702;48.130;-1.696;2023-04-05T07:18:25;20.03;;;14.33;;
17173;SDS011;8702;48.130;-1.696;2023-04-05T07:20:54;20.43;;;14.43;;
17173;SDS011;8702;48.130;-1.696;2023-04-05T07:23:24;18.83;;;14.30;;
17173;SDS011;8702;48.130;-1.696;2023-04-05T07:25:51;18.63;;;15.03;;
17173;SDS011;8702;48.130;-1.696;2023-04-05T07:28:18;17.17;;;14.70;;
17173;SDS011;8702;48.130;-1.696;2023-04-05T07:30:47;20.43;;;15.00;;
17173;SDS011;8702;48.130;-1.696;2023-04-05T07:33:14;20.73;;;14.67;;
17173;SDS011;8702;48.130;-1.696;2023-04-05T07:35:41;17.57;;;13.73;;
17173;SDS011;8702;48.130;-1.696;2023-04-05T07:38:08;23.23;;;14.37;;
17173;SDS011;8702;48.130;-1.696;2023-04-05T07:40:35;20.27;;;13.80;;
17173;SDS011;8702;48.130;-1.696;2023-04-05T07:43:02;15.13;;;13.37;;
17173;SDS011;8702;48.130;-1.696;2023-04-05T07:45:29;17.17;;;14.20;;
17173;SDS011;8702;48.130;-1.696;2023-04-05T07:47:58;18.13;;;13.67;;
17173;SDS011;8702;48.130;-1.696;2023-04-05T07:50:25;15.33;;;12.90;;
17173;SDS011;8702;48.130;-1.696;2023-04-05T07:52:52;24.03;;;14.00;;
17173;SDS011;8702;48.130;-1.696;2023-04-05T07:55:19;19.23;;;13.30;;
17173;SDS011;8702;48.130;-1.696;2023-04-05T07:57:46;16.20;;;12.30;;
17173;SDS011;8702;48.130;-1.696;2023-04-05T08:00:13;17.47;;;11.90;;
17173;SDS011;8702;48.130;-1.696;2023-04-05T08:02:41;17.30;;;13.23;;
17173;SDS011;8702;48.130;-1.696;2023-04-05T08:05:09;14.80;;;12.33;;
17173;SDS011;8702;48.130;-1.696;2023-04-05T08:07:37;15.57;;;12.47;;
17173;SDS011;8702;48.130;-1.696;2023-04-05T08:10:04;15.10;;;12.13;;
17173;SDS011;8702;48.130;-1.696;2023-04-05T08:12:32;13.90;;;11.53;;
17173;SDS011;8702;48.130;-1.696;2023-04-05T08:14:59;14.93;;;11.37;;
17173;SDS011;8702;48.130;-1.696;2023-04-05T08:17:26;14.43;;;11.47;;
17173;SDS011;8702;48.130;-1.696;2023-04-05T08:19:54;13.77;;;11.67;;
17173;SDS011;8702;48.130;-1.696;2023-04-05T08:22:22;15.83;;;12.23;;
17173;SDS011;8702;48.130;-1.696;2023-04-05T08:24:53;13.77;;;10.77;;
17173;SDS011;8702;48.130;-1.696;2023-04-05T08:27:20;14.40;;;11.40;;
17173;SDS011;8702;48.130;-1.696;2023-04-05T08:29:47;14.17;;;11.57;;
17173;SDS011;8702;48.130;-1.696;2023-04-05T08:32:14;16.50;;;11.90;;
17173;SDS011;8702;48.130;-1.696;2023-04-05T08:34:41;16.43;;;11.77;;
17173;SDS011;8702;48.130;-1.696;2023-04-05T08:37:08;16.90;;;11.63;;
17173;SDS011;8702;48.130;-1.696;2023-04-05T08:39:36;15.10;;;12.33;;
17173;SDS011;8702;48.130;-1.696;2023-04-05T08:42:03;20.63;;;12.03;;
17173;SDS011;8702;48.130;-1.696;2023-04-05T08:44:36;21.80;;;11.80;;
17173;SDS011;8702;48.130;-1.696;2023-04-05T08:47:06;15.93;;;10.50;;
17173;SDS011;8702;48.130;-1.696;2023-04-05T08:49:41;18.00;;;11.63;;
17173;SDS011;8702;48.130;-1.696;2023-04-05T08:52:09;19.53;;;11.80;;
17173;SDS011;8702;48.130;-1.696;2023-04-05T08:54:38;13.73;;;11.30;;
17173;SDS011;8702;48.130;-1.696;2023-04-05T08:57:05;16.10;;;11.97;;
17173;SDS011;8702;48.130;-1.696;2023-04-05T08:59:33;19.33;;;11.73;;
17173;SDS011;8702;48.130;-1.696;2023-04-05T09:02:03;14.87;;;12.07;;
17173;SDS011;8702;48.130;-1.696;2023-04-05T09:04:37;13.77;;;11.27;;
17173;SDS011;8702;48.130;-1.696;2023-04-05T09:07:08;16.37;;;11.50;;
17173;SDS011;8702;48.130;-1.696;2023-04-05T09:09:41;14.07;;;11.60;;
17173;SDS011;8702;48.130;-1.696;2023-04-05T09:15:33;13.50;;;11.43;;
17173;SDS011;8702;48.130;-1.696;2023-04-05T09:18:01;14.53;;;10.97;;
17173;SDS011;8702;48.130;-1.696;2023-04-05T09:20:28;18.17;;;10.90;;
17173;SDS011;8702;48.130;-1.696;2023-04-05T09:22:56;15.30;;;10.37;;
17173;SDS011;8702;48.130;-1.696;2023-04-05T09:25:34;16.03;;;11.00;;
17173;SDS011;8702;48.130;-1.696;2023-04-05T09:28:03;17.87;;;11.03;;
17173;SDS011;8702;48.130;-1.696;2023-04-05T09:30:31;16.93;;;11.00;;
17173;SDS011;8702;48.130;-1.696;2023-04-05T09:32:58;21.40;;;11.03;;
17173;SDS011;8702;48.130;-1.696;2023-04-05T09:35:26;14.23;;;10.63;;
17173;SDS011;8702;48.130;-1.696;2023-04-05T09:37:55;18.00;;;11.37;;
17173;SDS011;8702;48.130;-1.696;2023-04-05T09:40:23;17.70;;;10.83;;
17173;SDS011;8702;48.130;-1.696;2023-04-05T09:43:07;13.63;;;10.10;;
17173;SDS011;8702;48.130;-1.696;2023-04-05T09:45:37;11.77;;;9.87;;
17173;SDS011;8702;48.130;-1.696;2023-04-05T09:48:05;11.73;;;9.37;;
17173;SDS011;8702;48.130;-1.696;2023-04-05T09:50:33;13.50;;;9.87;;
17173;SDS011;8702;48.130;-1.696;2023-04-05T09:53:07;15.33;;;10.30;;
17173;SDS011;8702;48.130;-1.696;2023-04-05T09:55:39;15.17;;;9.63;;
17173;SDS011;8702;48.130;-1.696;2023-04-05T09:58:11;13.80;;;9.10;;
17173;SDS011;8702;48.130;-1.696;2023-04-05T10:00:44;14.93;;;8.70;;
17173;SDS011;8702;48.130;-1.696;2023-04-05T10:03:17;10.37;;;8.63;;
17173;SDS011;8702;48.130;-1.696;2023-04-05T10:05:44;14.93;;;9.40;;
17173;SDS011;8702;48.130;-1.696;2023-04-05T10:08:12;13.70;;;8.87;;
17173;SDS011;8702;48.130;-1.696;2023-04-05T10:10:46;12.37;;;9.57;;
17173;SDS011;8702;48.130;-1.696;2023-04-05T10:13:16;18.27;;;8.30;;
17173;SDS011;8702;48.130;-1.696;2023-04-05T10:15:44;10.43;;;8.80;;
17173;SDS011;8702;48.130;-1.696;2023-04-05T10:18:17;12.70;;;8.53;;
17173;SDS011;8702;48.130;-1.696;2023-04-05T10:20:50;12.47;;;8.40;;
17173;SDS011;8702;48.130;-1.696;2023-04-05T10:23:21;14.60;;;9.00;;
17173;SDS011;8702;48.130;-1.696;2023-04-05T10:25:53;13.20;;;8.40;;
17173;SDS011;8702;48.130;-1.696;2023-04-05T10:28:29;15.37;;;9.00;;
17173;SDS011;8702;48.130;-1.696;2023-04-05T10:30:58;15.00;;;8.63;;
17173;SDS011;8702;48.130;-1.696;2023-04-05T10:33:34;10.00;;;7.87;;
17173;SDS011;8702;48.130;-1.696;2023-04-05T10:36:05;9.00;;;7.80;;
17173;SDS011;8702;48.130;-1.696;2023-04-05T10:38:41;10.40;;;7.93;;
17173;SDS011;8702;48.130;-1.696;2023-04-05T10:41:19;11.87;;;8.13;;
17173;SDS011;8702;48.130;-1.696;2023-04-05T10:43:47;8.20;;;7.10;;
17173;SDS011;8702;48.130;-1.696;2023-04-05T10:46:18;9.43;;;7.07;;
17173;SDS011;8702;48.130;-1.696;2023-04-05T10:48:47;10.90;;;7.27;;
17173;SDS011;8702;48.130;-1.696;2023-04-05T10:51:22;10.77;;;7.83;;
17173;SDS011;8702;48.130;-1.696;2023-04-05T10:53:50;11.67;;;7.50;;
17173;SDS011;8702;48.130;-1.696;2023-04-05T10:56:18;13.43;;;8.03;;
17173;SDS011;8702;48.130;-1.696;2023-04-05T10:58:47;12.43;;;8.23;;
17173;SDS011;8702;48.130;-1.696;2023-04-05T11:01:16;9.00;;;7.50;;
17173;SDS011;8702;48.130;-1.696;2023-04-05T11:03:46;9.37;;;7.33;;
17173;SDS011;8702;48.130;-1.696;2023-04-05T11:06:17;11.93;;;7.97;;
17173;SDS011;8702;48.130;-1.696;2023-04-05T11:08:46;9.97;;;7.37;;
17173;SDS011;8702;48.130;-1.696;2023-04-05T11:11:15;13.47;;;8.30;;
17173;SDS011;8702;48.130;-1.696;2023-04-05T11:13:51;11.10;;;7.57;;
17173;SDS011;8702;48.130;-1.696;2023-04-05T11:16:18;9.13;;;7.00;;
17173;SDS011;8702;48.130;-1.696;2023-04-05T11:18:47;9.67;;;7.53;;
17173;SDS011;8702;48.130;-1.696;2023-04-05T11:21:22;9.57;;;7.43;;
17173;SDS011;8702;48.130;-1.696;2023-04-05T11:24:03;10.40;;;7.17;;
17173;SDS011;8702;48.130;-1.696;2023-04-05T11:32:14;10.27;;;7.57;;
17173;SDS011;8702;48.130;-1.696;2023-04-05T11:34:42;13.13;;;7.87;;
17173;SDS011;8702;48.130;-1.696;2023-04-05T11:37:09;9.47;;;7.67;;
17173;SDS011;8702;48.130;-1.696;2023-04-05T11:39:37;11.90;;;7.07;;
17173;SDS011;8702;48.130;-1.696;2023-04-05T11:42:06;8.13;;;6.70;;
17173;SDS011;8702;48.130;-1.696;2023-04-05T11:44:38;11.30;;;7.40;;
17173;SDS011;8702;48.130;-1.696;2023-04-05T11:47:08;8.30;;;7.20;;
17173;SDS011;8702;48.130;-1.696;2023-04-05T11:49:36;9.70;;;7.53;;
17173;SDS011;8702;48.130;-1.696;2023-04-05T11:52:10;8.07;;;6.43;;
17173;SDS011;8702;48.130;-1.696;2023-04-05T11:54:38;10.43;;;7.60;;
17173;SDS011;8702;48.130;-1.696;2023-04-05T11:57:10;7.83;;;7.03;;
17173;SDS011;8702;48.130;-1.696;2023-04-05T11:59:39;11.77;;;7.40;;
17173;SDS011;8702;48.130;-1.696;2023-04-05T12:02:06;8.60;;;7.03;;
17173;SDS011;8702;48.130;-1.696;2023-04-05T12:04:34;9.23;;;7.87;;
17173;SDS011;8702;48.130;-1.696;2023-04-05T12:07:11;9.87;;;6.93;;
17173;SDS011;8702;48.130;-1.696;2023-04-05T12:10:01;12.63;;;7.33;;
17173;SDS011;8702;48.130;-1.696;2023-04-05T12:12:31;8.90;;;6.93;;
17173;SDS011;8702;48.130;-1.696;2023-04-05T12:14:59;10.93;;;7.47;;
17173;SDS011;8702;48.130;-1.696;2023-04-05T12:20:19;9.87;;;7.13;;
17173;SDS011;8702;48.130;-1.696;2023-04-05T12:22:49;9.77;;;7.03;;
17173;SDS011;8702;48.130;-1.696;2023-04-05T12:25:18;9.17;;;6.73;;
17173;SDS011;8702;48.130;-1.696;2023-04-05T12:27:46;7.03;;;6.33;;
17173;SDS011;8702;48.130;-1.696;2023-04-05T12:30:14;9.80;;;7.27;;
17173;SDS011;8702;48.130;-1.696;2023-04-05T12:32:43;9.53;;;7.30;;
17173;SDS011;8702;48.130;-1.696;2023-04-05T12:35:14;13.00;;;7.60;;
17173;SDS011;8702;48.130;-1.696;2023-04-05T12:37:41;10.33;;;6.77;;
17173;SDS011;8702;48.130;-1.696;2023-04-05T12:40:10;8.20;;;7.40;;
17173;SDS011;8702;48.130;-1.696;2023-04-05T12:42:37;9.30;;;6.63;;
17173;SDS011;8702;48.130;-1.696;2023-04-05T12:45:06;10.07;;;7.23;;
17173;SDS011;8702;48.130;-1.696;2023-04-05T12:47:46;9.60;;;7.00;;
17173;SDS011;8702;48.130;-1.696;2023-04-05T12:50:16;9.60;;;7.37;;
17173;SDS011;8702;48.130;-1.696;2023-04-05T12:52:53;7.90;;;7.10;;
17173;SDS011;8702;48.130;-1.696;2023-04-05T12:55:20;9.97;;;6.90;;
17173;SDS011;8702;48.130;-1.696;2023-04-05T12:57:48;12.37;;;7.47;;
17173;SDS011;8702;48.130;-1.696;2023-04-05T13:00:16;9.07;;;7.03;;
17173;SDS011;8702;48.130;-1.696;2023-04-05T13:02:47;8.07;;;6.90;;
17173;SDS011;8702;48.130;-1.696;2023-04-05T13:05:18;9.17;;;7.37;;
17173;SDS011;8702;48.130;-1.696;2023-04-05T13:07:47;8.83;;;6.93;;
17173;SDS011;8702;48.130;-1.696;2023-04-05T13:10:15;9.50;;;6.97;;
17173;SDS011;8702;48.130;-1.696;2023-04-05T13:12:42;8.73;;;7.17;;
17173;SDS011;8702;48.130;-1.696;2023-04-05T13:15:09;9.73;;;6.93;;
17173;SDS011;8702;48.130;-1.696;2023-04-05T13:17:36;10.43;;;6.97;;
17173;SDS011;8702;48.130;-1.696;2023-04-05T13:20:04;8.40;;;7.10;;
17173;SDS011;8702;48.130;-1.696;2023-04-05T13:22:33;7.47;;;6.73;;
17173;SDS011;8702;48.130;-1.696;2023-04-05T13:25:00;8.53;;;6.23;;
17173;SDS011;8702;48.130;-1.696;2023-04-05T13:27:27;11.63;;;6.70;;
17173;SDS011;8702;48.130;-1.696;2023-04-05T13:29:54;8.17;;;6.77;;
17173;SDS011;8702;48.130;-1.696;2023-04-05T13:32:21;8.80;;;6.80;;
17173;SDS011;8702;48.130;-1.696;2023-04-05T13:34:48;10.17;;;6.83;;
17173;SDS011;8702;48.130;-1.696;2023-04-05T13:37:15;8.87;;;6.70;;
17173;SDS011;8702;48.130;-1.696;2023-04-05T13:39:43;8.53;;;6.87;;
17173;SDS011;8702;48.130;-1.696;2023-04-05T13:42:10;8.50;;;6.60;;
17173;SDS011;8702;48.130;-1.696;2023-04-05T13:44:37;9.97;;;6.83;;
17173;SDS011;8702;48.130;-1.696;2023-04-05T13:47:04;8.07;;;5.63;;
17173;SDS011;8702;48.130;-1.696;2023-04-05T13:49:31;8.53;;;6.20;;
17173;SDS011;8702;48.130;-1.696;2023-04-05T13:51:58;8.63;;;6.37;;
17173;SDS011;8702;48.130;-1.696;2023-04-05T13:54:27;7.80;;;5.77;;
17173;SDS011;8702;48.130;-1.696;2023-04-05T13:56:55;7.80;;;6.20;;
17173;SDS011;8702;48.130;-1.696;2023-04-05T13:59:23;7.07;;;5.87;;
17173;SDS011;8702;48.130;-1.696;2023-04-05T14:01:50;8.60;;;6.47;;
17173;SDS011;8702;48.130;-1.696;2023-04-05T14:04:17;7.60;;;6.60;;
17173;SDS011;8702;48.130;-1.696;2023-04-05T14:06:45;11.03;;;6.47;;
17173;SDS011;8702;48.130;-1.696;2023-04-05T14:09:12;6.43;;;5.83;;
17173;SDS011;8702;48.130;-1.696;2023-04-05T14:11:38;9.00;;;6.20;;
17173;SDS011;8702;48.130;-1.696;2023-04-05T14:14:07;6.90;;;5.43;;
17173;SDS011;8702;48.130;-1.696;2023-04-05T14:16:34;9.03;;;5.70;;
17173;SDS011;8702;48.130;-1.696;2023-04-05T14:19:02;7.43;;;5.20;;
17173;SDS011;8702;48.130;-1.696;2023-04-05T14:21:29;6.90;;;5.80;;
17173;SDS011;8702;48.130;-1.696;2023-04-05T14:23:57;7.73;;;6.07;;
17173;SDS011;8702;48.130;-1.696;2023-04-05T14:26:24;8.20;;;5.93;;
17173;SDS011;8702;48.130;-1.696;2023-04-05T14:28:52;8.47;;;5.33;;
17173;SDS011;8702;48.130;-1.696;2023-04-05T14:31:21;7.40;;;5.80;;
17173;SDS011;8702;48.130;-1.696;2023-04-05T14:33:49;9.83;;;6.00;;
17173;SDS011;8702;48.130;-1.696;2023-04-05T14:36:16;7.90;;;5.97;;
17173;SDS011;8702;48.130;-1.696;2023-04-05T14:38:43;9.27;;;6.10;;
17173;SDS011;8702;48.130;-1.696;2023-04-05T14:41:11;6.67;;;5.43;;
17173;SDS011;8702;48.130;-1.696;2023-04-05T14:43:38;10.97;;;5.70;;
17173;SDS011;8702;48.130;-1.696;2023-04-05T14:46:06;7.87;;;5.80;;
17173;SDS011;8702;48.130;-1.696;2023-04-05T14:48:34;7.60;;;5.50;;
17173;SDS011;8702;48.130;-1.696;2023-04-05T14:51:01;6.73;;;5.30;;
17173;SDS011;8702;48.130;-1.696;2023-04-05T14:53:29;6.67;;;5.67;;